Nearby METAR Reports

CWGD - Goderich (autob), Ontario, Canada
Distance from station: SW 47km
Updated: 10/17/2021 11:00am

 Wind from NNW
Wind: NNW 22 km/h, Gust: 41 km/h
Temperature: 11°C
Dew Point: 6°C
Humidity: 72%
2021/10/17 15:00 CWGD 171500Z AUTO 33012G22KT 11/06 RMK AO1 PK WND 32028/1428 SLP137 T01050055 51006
CWLS - Mount Forest(Mar, Ontario, Canada
Distance from station: ESE 53km
Updated: 10/17/2021 7:00pm

 Wind from NW
Wind: NW 11 km/h
Temperature: 8°C
Wind Chill: 6°C
Dew Point: 6°C
Humidity: 87%
2021/10/17 23:00 CWLS 172300Z AUTO 32006KT 08/06 RMK AO1 SLP095 T00830055 53019
 
CYVV - Wiarton Air, Ontario, Canada
Distance from station: NNE 75km
Updated: 10/17/2021 11:00am
Partly cloudy
Partly cloudy
 Wind from WNW
Wind: WNW 13 km/h
Temperature: 12°C
Dew Point: 3°C
Humidity: 54%
Barometer: 1011.5 hPa
Clouds: Partly cloudy
Visibility: 24 km
Cloud details: Few Clouds 975 m
Partly cloudy 1524 m
2021/10/17 15:00 CYVV 171500Z 30007KT 260V020 15SM FEW032 SCT050 12/03 A2987 RMK CU1SC2 SLP119
CZEL - Elora Rcs, Ontario, Canada
Distance from station: ESE 93km
Updated: 10/17/2021 11:00am

 Wind from W
Wind: W 19 km/h
Temperature: 10°C
Wind Chill: 7°C
Dew Point: 5°C
Humidity: 71%
2021/10/17 15:00 CZEL 171500Z AUTO 28010KT 10/05 RMK AO1 PK WND 30026/1428 SLP131 T00960050 51009
 
CWCO - Collingwood (aut, Ontario, Canada
Distance from station: ENE 104km
Updated: 10/17/2021 11:00am

 Wind from NNW
Wind: NNW 33 km/h, Gust: 52 km/h
Temperature: 12°C
Dew Point: 5°C
Humidity: 63%
2021/10/17 15:00 CWCO 171500Z AUTO 33018G28KT 12/05 RMK AO1 PK WND 34028/1444 SLP106 T01170046 51013
CYKF - Waterloo Well, Ontario, Canada
Distance from station: SE 107km
Updated: 10/17/2021 11:00am
Overcast
Overcast
 Wind from W
Wind: W 31 km/h, Gust: 41 km/h
Temperature: 10°C
Wind Chill: 7°C
Dew Point: 5°C
Humidity: 71%
Barometer: 1012.2 hPa
Clouds: Overcast
Visibility: 14 km
Cloud details: Mostly cloudy 1676 m
Overcast 2012 m
2021/10/17 15:00 CYKF 171500Z AUTO 28017G22KT 9SM BKN055 OVC066 10/05 A2989 RMK SLP128
 
KP58 - Port Hope, Michigan, USA
Distance from station: W 114km
Updated: 10/17/2021 6:55am
NOT Current

 Wind from W
Wind: W 7 km/h
Temperature: 10°C
Wind Chill: 9°C
Dew Point: 6°C
Humidity: 76%
Barometer: 1012.5 hPa
2021/10/17 10:55 KP58 171055Z AUTO 26004KT 10/06 A2990 RMK AO1 SLP126 T01000056
CYBN - Borden, Ontario, Canada
Distance from station: E 118km
Updated: 10/17/2021 11:00am
Mostly cloudy
Mostly cloudy
 Wind from NW
Wind: NW 19 km/h, Gust: 39 km/h
Temperature: 11°C
Dew Point: 4°C
Humidity: 62%
Barometer: 1010.5 hPa
Clouds: Mostly cloudy
Visibility: 14 km
Cloud details: Mostly cloudy 1036 m
Mostly cloudy 1798 m
2021/10/17 15:00 CYBN 171500Z AUTO 31010G21KT 290V350 9SM BKN034 BKN059 11/04 A2984 RMK SLP109
 
CYXU - London Airport, Ontario, Canada
Distance from station: S 123km
Updated: 10/17/2021 11:31am
Light rain, Showers, Mostly cloudy
Light rain, Showers, Mostly cloudy
 Wind from N
Wind: N 17 km/h
Temperature: 9°C
Wind Chill: 7°C
Dew Point: 6°C
Humidity: 82%
Barometer: 1013.5 hPa
Summary: Light rain, Showers
Clouds: Mostly cloudy
Visibility: 19 km
Cloud details: Partly cloudy 610 m
Mostly cloudy 853 m
2021/10/17 15:31 CYXU 171531Z 01009KT 340V050 12SM -SHRA SCT020 BKN028TCU 09/06 A2993 RMK SC4TCU2 SLP142
CXET - Egbert Cs, Ontario, Canada
Distance from station: E 128km
Updated: 10/17/2021 11:00am

 Wind from NW
Wind: NW 22 km/h, Gust: 41 km/h
Temperature: 11°C
Dew Point: 3°C
Humidity: 58%
2021/10/17 15:00 CXET 171500Z AUTO 32012G22KT 11/03 RMK AO1 PK WND 31023/1440 SLP103 T01110027 51010
 
CWMZ - Western Isl (map, Ontario, Canada
Distance from station: NE 129km
Updated: 10/17/2021 11:00am

 Wind from NNW
Wind: NNW 43 km/h, Gust: 57 km/h
Temperature: 11°C
Dew Point: 3°C
Humidity: 58%
2021/10/17 15:00 CWMZ 171500Z AUTO 34023G31KT 11/03 RMK AO1 PK WND 34034/1412 SLP110 T01140034 51017
KBAX - Bad Axe, Michigan, USA
Distance from station: WSW 133km
Updated: 10/17/2021 11:35am
Partly cloudy
Partly cloudy
 Wind from NNW
Wind: NNW 26 km/h, Gust: 35 km/h
Temperature: 13°C
Dew Point: 6°C
Humidity: 63%
Barometer: 1014.2 hPa
Clouds: Partly cloudy
Visibility: 16 km
Cloud details: Partly cloudy 975 m
Partly cloudy 2743 m
2021/10/17 15:35 KBAX 171535Z AUTO 33014G19KT 10SM SCT032 SCT090 13/06 A2995 RMK AO2 T01320061
 
CWWX - Cove Island (map, Ontario, Canada
Distance from station: NNW 137km
Updated: 05/11/2021 10:00am
NOT Current

 Wind from NNW
Wind: NNW 30 km/h
Temperature: 5°C
Wind Chill: 0°C
Dew Point: 2°C
Humidity: 81%
2021/05/11 14:00 CWWX 111400Z AUTO 33016KT 05/02 RMK AO1 PK WND 34021/1308 SLP196 T00470019 51010
CYZR - Sarnia Airport, Ontario, Canada
Distance from station: SSW 144km
Updated: 10/17/2021 11:00am
Overcast
Overcast
 Wind from WNW
Wind: WNW 15 km/h
Temperature: 12°C
Dew Point: 5°C
Humidity: 63%
Barometer: 1014.6 hPa
Clouds: Overcast
Visibility: 14 km
Cloud details: Overcast 2926 m
2021/10/17 15:00 CYZR 171500Z AUTO 29008KT 9SM OVC096 12/05 A2996 RMK SLP150
 
CXHM - Hamilton Rbg Cs, Ontario, Canada
Distance from station: SE 150km
Updated: 10/17/2021 11:00am

 Wind from WNW
Wind: WNW 15 km/h, Gust: 28 km/h
Temperature: 14°C
Dew Point: 5°C
Humidity: 55%
2021/10/17 15:00 CXHM 171500Z AUTO 30008G15KT 14/05 RMK AO1 SLP127 T01350050 51012
CYYZ - Toronto/Pearson, Ontario, Canada
Distance from station: ESE 150km
Updated: 10/17/2021 11:00am
Mostly cloudy
Mostly cloudy
 Wind from WNW
Wind: WNW 43 km/h
Temperature: 13°C
Dew Point: 3°C
Humidity: 51%
Barometer: 1010.8 hPa
Clouds: Mostly cloudy
Visibility: 24 km
Cloud details: Partly cloudy 1250 m
Partly cloudy 3658 m
Mostly cloudy 6706 m
2021/10/17 15:00 CYYZ 171500Z 30023KT 15SM SCT041 SCT120 BKN220 13/03 A2985 RMK CU3AC1CI1 SLP112
 
CXBI - Barrie-Oro, Ontario, Canada
Distance from station: ENE 151km
Updated: 10/17/2021 11:00am

 Wind from NW
Wind: NW 26 km/h, Gust: 43 km/h
Temperature: 10°C
Wind Chill: 7°C
Dew Point: 5°C
Humidity: 71%
2021/10/17 15:00 CXBI 171500Z AUTO 31014G23KT 10/05 RMK AO1 1013 PK WND 32023/1453 SLP108 T01020046 50005
CXDI - Delhi Cs (aut), Ontario, Canada
Distance from station: SSE 154km
Updated: 10/17/2021 11:00am

 Wind from N
Wind: N 15 km/h
Temperature: 8°C
Wind Chill: 5°C
Dew Point: 6°C
Humidity: 87%
2021/10/17 15:00 CXDI 171500Z AUTO 36008KT 08/06 RMK AO1 3PAST HR 1011 SLP142 P0001 T00840064 50009
 
CWWB - Burlington Piers, Ontario, Canada
Distance from station: SE 157km
Updated: 10/17/2021 11:00am

 Wind from W
Wind: W 17 km/h, Gust: 28 km/h
Temperature: 13°C
Dew Point: 5°C
Humidity: 59%
2021/10/17 15:00 CWWB 171500Z AUTO 27009G15KT 13/05 RMK AO1 PK WND 27019/1431 SLP122 T01300049 51010
CYHM - Hamilton Airport, Ontario, Canada
Distance from station: SE 157km
Updated: 10/17/2021 11:00am
Mostly cloudy
Mostly cloudy
 Wind from W
Wind: W 26 km/h, Gust: 37 km/h
Temperature: 12°C
Dew Point: 5°C
Humidity: 63%
Barometer: 1012.5 hPa
Clouds: Mostly cloudy
Visibility: 24 km
Cloud details: Partly cloudy 914 m
Mostly cloudy 4877 m
2021/10/17 15:00 CYHM 171500Z 28014G20KT 15SM SCT030 BKN160 12/05 A2990 RMK CU4AC2 SLP128